Time;durP1;ratioP1;P1;durP2;ratioP2;P2;SDS_P1;SDS_P2;PMS_P1;PMS_P2;Temp;Humidity;BMP_temperature;BMP_pressure;BME280_temperature;BME280_humidity;BME280_pressure;Samples;Min_cycle;Max_cycle;Signal;HPM_P1;HPM_P2
2021/07/22 00:00:09;;;;;;;9.45;2.63;;;;;;;16.32;61.25;98922.66;5095272;28;20144;-69
2021/07/22 00:02:38;;;;;;;10.05;3.00;;;;;;;16.28;61.32;98932.84;5095196;28;20040;-69
2021/07/22 00:05:05;;;;;;;9.02;2.80;;;;;;;16.25;61.57;98924.34;5095450;28;20036;-71
2021/07/22 00:07:31;;;;;;;9.52;3.50;;;;;;;16.21;61.68;98925.72;5094969;28;20104;-70
2021/07/22 00:09:56;;;;;;;8.50;2.92;;;;;;;16.22;61.73;98927.38;5095289;28;20052;-70
2021/07/22 00:12:22;;;;;;;8.25;3.10;;;;;;;16.20;61.90;98924.91;5094753;28;20500;-70
2021/07/22 00:14:48;;;;;;;5.07;2.70;;;;;;;16.18;62.10;98926.88;5076623;28;20044;-71
2021/07/22 00:17:14;;;;;;;6.50;2.75;;;;;;;16.17;62.27;98941.22;5094984;28;20040;-70
2021/07/22 00:19:40;;;;;;;6.32;2.95;;;;;;;16.14;62.35;98936.25;5094852;28;20053;-69
2021/07/22 00:22:05;;;;;;;6.28;2.90;;;;;;;16.11;62.82;98939.25;5076966;28;20050;-69
2021/07/22 00:24:31;;;;;;;7.25;3.33;;;;;;;16.10;62.85;98937.59;5094733;28;20124;-70
2021/07/22 00:26:57;;;;;;;7.38;3.00;;;;;;;16.08;62.97;98943.09;5094169;28;20044;-69
2021/07/22 00:29:24;;;;;;;7.55;3.20;;;;;;;16.05;63.13;98943.47;5094161;28;20429;-70
2021/07/22 00:31:54;;;;;;;6.55;3.03;;;;;;;16.01;63.23;98942.97;5094659;28;20108;-70
2021/07/22 00:34:23;;;;;;;5.38;2.80;;;;;;;15.99;63.39;98947.63;5076552;28;20040;-68
2021/07/22 00:36:49;;;;;;;5.85;3.38;;;;;;;15.96;63.70;98950.66;5076381;28;20055;-69
2021/07/22 00:39:17;;;;;;;6.85;3.30;;;;;;;15.98;63.71;98953.13;5076443;28;20039;-69
2021/07/22 00:41:45;;;;;;;9.23;3.10;;;;;;;15.96;63.30;98956.00;5075863;28;20055;-68
2021/07/22 00:44:11;;;;;;;8.23;3.30;;;;;;;15.98;63.69;98951.28;5094572;28;20051;-69
2021/07/22 00:46:38;;;;;;;6.50;3.00;;;;;;;15.95;63.81;98956.13;5092964;28;20130;-69
2021/07/22 00:49:08;;;;;;;16.30;3.20;;;;;;;15.91;64.02;98958.31;5094215;28;20268;-70
2021/07/22 00:51:37;;;;;;;11.02;3.47;;;;;;;15.89;64.62;98952.34;5075905;28;20048;-70
2021/07/22 00:54:04;;;;;;;11.77;5.32;;;;;;;15.88;64.46;98955.19;5096048;28;20051;-69
2021/07/22 00:56:31;;;;;;;9.43;3.78;;;;;;;15.86;64.58;98950.00;5097323;28;20177;-68
2021/07/22 00:58:57;;;;;;;9.35;3.65;;;;;;;15.85;64.71;98948.34;5095749;28;20533;-70
2021/07/22 01:01:24;;;;;;;9.98;3.42;;;;;;;15.84;64.85;98957.34;5095985;28;20124;-69
2021/07/22 01:03:51;;;;;;;7.57;3.13;;;;;;;15.85;64.86;98959.03;5096484;28;20036;-68
2021/07/22 01:06:17;;;;;;;7.28;3.30;;;;;;;15.81;64.98;98953.16;5095795;28;20051;-69
2021/07/22 01:08:43;;;;;;;7.93;3.90;;;;;;;15.79;64.92;98949.00;5114301;28;20042;-70
2021/07/22 01:11:30;;;;;;;;;;;;;;;15.73;65.19;98961.16;5096208;28;20063;-69
2021/07/22 01:13:57;;;;;;;5.50;3.03;;;;;;;15.71;65.14;98963.16;5096155;28;19987;-70
2021/07/22 01:16:24;;;;;;;12.55;3.45;;;;;;;15.67;65.16;98965.31;5113993;28;20039;-70
2021/07/22 01:18:50;;;;;;;7.45;3.17;;;;;;;15.65;64.80;98964.69;5095804;28;20093;-69
2021/07/22 01:21:16;;;;;;;6.25;3.22;;;;;;;15.65;64.85;98970.00;5095945;28;20468;-70
2021/07/22 01:23:42;;;;;;;5.78;2.90;;;;;;;15.65;64.79;98969.16;5095799;28;20069;-70
2021/07/22 01:26:27;;;;;;;9.45;3.25;;;;;;;15.60;64.76;98969.69;5114165;28;20055;-71
2021/07/22 01:28:57;;;;;;;6.25;3.28;;;;;;;15.59;65.07;98972.50;5095744;28;20446;-70
2021/07/22 01:31:25;;;;;;;9.32;3.30;;;;;;;15.58;64.99;98973.53;5095401;28;20051;-69
2021/07/22 01:33:51;;;;;;;6.43;3.20;;;;;;;15.57;65.03;98980.66;5095379;28;20043;-68
2021/07/22 01:36:22;;;;;;;8.50;3.08;;;;;;;15.55;65.16;98974.66;5113842;28;20047;-69
2021/07/22 01:38:51;;;;;;;6.97;2.72;;;;;;;15.53;64.94;98987.34;5113311;28;20036;-68
2021/07/22 01:41:18;;;;;;;7.00;2.85;;;;;;;15.51;65.48;98978.69;5113703;28;20075;-69
2021/07/22 01:43:45;;;;;;;9.57;3.20;;;;;;;15.50;65.50;98982.34;5095237;28;20131;-71
2021/07/22 01:46:11;;;;;;;8.70;3.03;;;;;;;15.47;65.68;98977.34;5095451;28;20147;-68
2021/07/22 01:48:39;;;;;;;10.50;3.90;;;;;;;15.47;65.53;98983.50;5078337;28;20039;-69
2021/07/22 01:51:05;;;;;;;6.18;3.05;;;;;;;15.44;65.74;98985.66;5113610;28;20039;-69
2021/07/22 01:53:33;;;;;;;;;;;;;;;15.44;65.94;98993.66;5095595;28;20458;-68
2021/07/22 01:56:01;;;;;;;7.38;3.30;;;;;;;15.41;65.91;98984.16;5095070;28;19919;-69
2021/07/22 01:58:28;;;;;;;;;;;;;;;15.37;66.15;98983.66;5113694;28;20365;-69
2021/07/22 02:00:54;;;;;;;8.70;3.28;;;;;;;15.35;66.34;98990.16;5111947;28;20175;-69
2021/07/22 02:03:20;;;;;;;6.45;2.90;;;;;;;15.35;66.28;98988.34;5095373;28;20077;-70
2021/07/22 02:05:56;;;;;;;8.40;3.67;;;;;;;15.37;66.03;98989.00;5113091;28;20556;-69
2021/07/22 02:08:23;;;;;;;9.07;2.88;;;;;;;15.39;66.18;98985.34;5094859;28;20622;-69
2021/07/22 02:10:49;;;;;;;8.02;3.00;;;;;;;15.42;66.03;98985.03;5112797;28;20067;-70
2021/07/22 02:13:15;;;;;;;13.27;2.83;;;;;;;15.43;66.14;98986.69;5094275;28;20039;-70
2021/07/22 02:15:49;;;;;;;9.07;3.03;;;;;;;15.43;66.20;98984.03;5094283;28;20039;-70
2021/07/22 02:18:28;;;;;;;5.55;2.45;;;;;;;15.43;66.04;98982.19;5096401;28;20078;-70
2021/07/22 02:20:54;;;;;;;6.80;3.13;;;;;;;15.47;66.03;98982.69;5112748;28;20070;-70
2021/07/22 02:23:21;;;;;;;10.15;2.92;;;;;;;15.46;65.81;98989.00;5094859;28;20047;-69
2021/07/22 02:26:13;;;;;;;6.88;2.63;;;;;;;15.48;65.71;98992.34;5049531;28;20080;-69
2021/07/22 02:28:39;;;;;;;6.63;2.90;;;;;;;15.46;65.58;98989.00;5049468;28;20088;-70
2021/07/22 02:31:05;;;;;;;7.15;3.13;;;;;;;15.47;65.34;98993.34;5032772;28;20549;-72
2021/07/22 02:33:32;;;;;;;6.80;2.65;;;;;;;15.48;65.15;98987.03;5032890;28;20045;-70
2021/07/22 02:35:59;;;;;;;6.55;2.65;;;;;;;15.52;64.68;98993.66;5032964;28;20045;-70
2021/07/22 02:38:24;;;;;;;5.30;2.70;;;;;;;15.55;64.49;99001.31;5049552;28;20060;-69
2021/07/22 02:40:50;;;;;;;5.43;2.45;;;;;;;15.56;64.15;99004.84;5049583;28;20546;-71
2021/07/22 02:43:18;;;;;;;6.55;2.90;;;;;;;15.56;63.98;99003.00;5033022;28;20053;-70
2021/07/22 02:45:44;;;;;;;8.05;2.80;;;;;;;15.60;64.00;99008.81;5049130;28;20509;-69
2021/07/22 02:48:11;;;;;;;;;;;;;;;15.62;63.61;99018.31;5033376;28;20410;-69
2021/07/22 02:50:38;;;;;;;5.80;2.50;;;;;;;15.65;63.37;99012.66;5031962;28;19928;-74
2021/07/22 02:53:07;;;;;;;5.97;2.58;;;;;;;15.67;63.01;99015.97;5049138;28;20053;-72
2021/07/22 02:55:45;;;;;;;11.02;2.60;;;;;;;15.72;62.62;99012.00;5032105;28;20076;-69
2021/07/22 02:58:11;;;;;;;5.97;2.90;;;;;;;15.75;62.50;99023.16;5049198;28;20486;-70
2021/07/22 03:00:43;;;;;;;7.20;2.38;;;;;;;15.79;62.24;99023.66;5048770;28;20052;-70
2021/07/22 03:03:12;;;;;;;5.15;2.25;;;;;;;15.79;61.56;99029.00;5068264;28;20047;-69
2021/07/22 03:05:38;;;;;;;6.78;3.33;;;;;;;15.84;61.21;99026.69;5111822;28;20500;-70
2021/07/22 03:08:06;;;;;;;6.93;2.63;;;;;;;15.84;61.08;99029.34;5112233;28;20500;-69
2021/07/22 03:10:33;;;;;;;8.23;2.80;;;;;;;15.88;60.91;99032.50;5112040;28;20056;-72
2021/07/22 03:13:00;;;;;;;16.95;3.92;;;;;;;15.93;60.74;99040.84;5112018;28;20047;-68
2021/07/22 03:15:28;;;;;;;6.18;2.50;;;;;;;16.01;60.42;99043.47;5111921;28;20125;-71
2021/07/22 03:17:55;;;;;;;7.05;2.50;;;;;;;16.05;60.31;99043.97;5093826;28;20054;-70
2021/07/22 03:20:22;;;;;;;6.28;2.42;;;;;;;16.13;59.76;99046.63;5093965;28;20134;-69
2021/07/22 03:22:55;;;;;;;9.57;2.67;;;;;;;16.19;59.51;99048.63;5093677;28;20046;-73
2021/07/22 03:25:28;;;;;;;10.35;2.63;;;;;;;16.23;58.86;99057.94;5111637;28;20078;-70
2021/07/22 03:28:04;;;;;;;5.68;2.15;;;;;;;16.27;58.70;99051.25;5093525;28;20400;-71
2021/07/22 03:30:56;;;;;;;4.50;2.42;;;;;;;16.30;58.73;99048.25;5106777;28;20171;-70
2021/07/22 03:33:34;;;;;;;5.82;2.45;;;;;;;16.33;58.48;99047.09;5088567;28;20447;-71
2021/07/22 03:36:12;;;;;;;8.40;2.30;;;;;;;16.68;57.86;99057.47;5111025;28;20070;-70
2021/07/22 03:38:41;;;;;;;7.32;2.50;;;;;;;16.98;56.54;99048.69;5103669;28;20122;-70
2021/07/22 03:41:26;;;;;;;5.70;2.47;;;;;;;17.34;56.51;99057.16;5110757;28;20043;-69
2021/07/22 03:43:59;;;;;;;8.82;2.50;;;;;;;17.53;55.60;99058.50;5092526;28;20043;-71
2021/07/22 03:46:25;;;;;;;5.22;2.30;;;;;;;17.60;54.45;99060.28;5092834;28;20044;-71
2021/07/22 03:48:51;;;;;;;6.70;2.28;;;;;;;17.66;53.92;99064.09;5092895;28;20047;-71
2021/07/22 03:51:20;;;;;;;6.28;2.20;;;;;;;17.71;54.02;99072.41;5111181;28;20134;-72
2021/07/22 03:53:45;;;;;;;8.98;5.80;;;;;;;17.79;53.64;99069.69;5109829;28;20123;-72
2021/07/22 03:56:11;;;;;;;8.25;2.60;;;;;;;17.86;52.84;99072.47;5109907;28;20044;-72
2021/07/22 03:58:45;;;;;;;7.80;2.50;;;;;;;17.99;52.65;99063.00;5109687;28;20043;-72
2021/07/22 04:01:33;;;;;;;9.07;3.25;;;;;;;18.05;52.51;99065.78;5098019;28;20046;-71
2021/07/22 04:04:05;;;;;;;5.28;2.20;;;;;;;18.07;51.85;99071.78;5097444;28;20040;-71
2021/07/22 04:06:36;;;;;;;10.02;2.30;;;;;;;18.13;51.75;99075.59;5098454;28;20051;-71
2021/07/22 04:09:03;;;;;;;7.18;2.35;;;;;;;18.21;51.63;99067.47;5098226;28;20508;-74
2021/07/22 04:11:58;;;;;;;7.80;2.17;;;;;;;18.37;50.56;99076.38;5084258;28;20048;-73
2021/07/22 04:14:57;;;;;;;11.38;3.03;;;;;;;19.94;47.20;99060.81;5063303;28;20048;-72
2021/07/22 04:17:41;;;;;;;5.97;2.42;;;;;;;21.66;43.40;99074.47;5059293;28;20079;-73
2021/07/22 04:20:36;;;;;;;4.45;2.30;;;;;;;22.84;40.22;99064.78;5042079;28;20127;-73
2021/07/22 04:23:28;;;;;;;4.72;2.05;;;;;;;23.77;38.03;99068.00;5054491;28;20090;-71
2021/07/22 04:26:32;;;;;;;3.10;2.10;;;;;;;24.64;35.86;99071.78;5031253;28;20586;-75
2021/07/22 04:29:15;;;;;;;8.88;2.20;;;;;;;25.56;34.45;99072.69;5014672;28;20129;-71
2021/07/22 04:31:41;;;;;;;3.85;2.15;;;;;;;26.18;32.97;99075.03;5029939;28;20077;-70
2021/07/22 04:34:33;;;;;;;5.15;2.00;;;;;;;26.94;31.10;99061.53;4971339;28;20273;-70
2021/07/22 04:37:18;;;;;;;3.67;1.80;;;;;;;27.46;30.25;99061.69;4972530;28;20051;-70
2021/07/22 04:40:06;;;;;;;5.40;2.30;;;;;;;28.23;28.84;99068.38;4972458;28;20051;-72
2021/07/22 04:42:49;;;;;;;3.38;1.77;;;;;;;29.02;27.43;99066.41;4972447;28;20290;-71
2021/07/22 04:45:22;;;;;;;5.95;1.70;;;;;;;29.55;26.58;99072.16;4972729;28;20077;-70
2021/07/22 04:48:03;;;;;;;5.72;1.80;;;;;;;29.91;26.09;99066.19;4952577;28;20139;-69
2021/07/22 04:50:50;;;;;;;5.40;1.73;;;;;;;30.41;25.34;99080.47;4937649;29;20055;-71
2021/07/22 04:53:22;;;;;;;4.80;1.60;;;;;;;31.03;23.76;99081.56;4953014;29;20055;-71
2021/07/22 04:55:52;;;;;;;5.60;1.65;;;;;;;31.18;23.26;99085.44;4952702;29;20046;-72
2021/07/22 04:58:19;;;;;;;;;;;;;;;31.07;23.28;99088.16;4988327;28;20058;-72
2021/07/22 05:01:05;;;;;;;4.78;1.75;;;;;;;31.37;23.32;99086.59;4990076;28;20012;-71
2021/07/22 05:03:31;;;;;;;4.22;1.83;;;;;;;31.39;23.14;99089.91;4991037;28;20085;-70
2021/07/22 05:05:57;;;;;;;7.43;2.78;;;;;;;31.60;22.40;99078.97;4989659;28;20059;-69
2021/07/22 05:08:47;;;;;;;4.05;1.80;;;;;;;31.30;22.55;99086.88;4988085;28;20096;-70
2021/07/22 05:11:19;;;;;;;5.03;1.75;;;;;;;31.59;22.63;99080.06;5050440;28;20527;-71
2021/07/22 05:14:17;;;;;;;3.08;1.58;;;;;;;32.30;21.64;99080.34;5081644;28;20047;-72
2021/07/22 05:16:45;;;;;;;5.28;1.80;;;;;;;32.80;21.00;99078.59;5113512;28;20046;-71
2021/07/22 05:19:41;;;;;;;5.72;1.83;;;;;;;32.73;20.78;99078.84;5075493;28;20074;-71
2021/07/22 05:22:25;;;;;;;5.18;2.65;;;;;;;32.08;20.87;99075.97;5104360;28;20069;-70
2021/07/22 05:25:20;;;;;;;7.82;1.70;;;;;;;32.47;20.66;99075.38;5099794;28;20048;-71
2021/07/22 05:27:52;;;;;;;5.85;1.75;;;;;;;32.52;20.28;99088.22;5113957;28;20043;-72
2021/07/22 05:30:50;;;;;;;6.93;2.10;;;;;;;33.06;19.94;99082.00;5050388;28;20053;-73
2021/07/22 05:33:37;;;;;;;5.20;1.70;;;;;;;33.34;19.60;99087.91;5046281;28;20045;-72
2021/07/22 05:36:14;;;;;;;5.78;2.35;;;;;;;33.12;19.47;99085.53;5049366;28;21890;-73
2021/07/22 05:39:03;;;;;;;4.38;1.42;;;;;;;33.39;19.17;99073.34;5046995;28;20041;-70
2021/07/22 05:41:29;;;;;;;6.82;1.40;;;;;;;33.48;19.14;99076.28;5033973;28;20106;-71
2021/07/22 05:43:55;;;;;;;3.42;1.63;;;;;;;34.21;18.44;99082.84;5032864;28;20053;-70
2021/07/22 05:46:22;;;;;;;2.67;1.50;;;;;;;34.12;18.34;99087.28;5049984;28;20076;-69
2021/07/22 05:48:48;;;;;;;6.90;1.60;;;;;;;33.77;18.23;99083.75;5049430;28;20295;-71
2021/07/22 05:51:15;;;;;;;7.30;1.80;;;;;;;33.67;19.05;99085.47;5049355;28;20052;-71
2021/07/22 05:53:41;;;;;;;4.78;2.22;;;;;;;34.71;17.63;99090.81;5049625;28;20080;-69
2021/07/22 05:56:09;;;;;;;5.18;1.42;;;;;;;34.51;17.69;99097.38;5049643;28;20033;-70
2021/07/22 05:58:34;;;;;;;5.22;1.60;;;;;;;34.35;17.69;99094.78;5066739;28;20053;-71
2021/07/22 06:01:05;;;;;;;5.43;1.65;;;;;;;34.57;17.37;99093.47;5048840;28;20128;-71
2021/07/22 06:03:31;;;;;;;5.38;1.90;;;;;;;34.22;17.55;99084.47;5049365;28;20506;-72
2021/07/22 06:05:57;;;;;;;8.40;4.25;;;;;;;34.91;17.19;99083.47;5068706;28;20086;-73
2021/07/22 06:08:23;;;;;;;5.30;1.63;;;;;;;35.12;17.14;99089.50;5112662;28;20109;-74
2021/07/22 06:10:49;;;;;;;7.63;1.77;;;;;;;35.09;16.94;99101.06;5112023;28;20296;-71
2021/07/22 06:13:15;;;;;;;5.95;1.70;;;;;;;35.52;16.56;99092.78;5112121;28;20043;-73
2021/07/22 06:15:53;;;;;;;4.43;1.42;;;;;;;35.48;16.64;99100.00;5108832;28;20047;-73
2021/07/22 06:18:19;;;;;;;3.58;1.33;;;;;;;35.12;16.91;99093.06;5094674;28;20401;-73
2021/07/22 06:20:44;;;;;;;8.90;2.00;;;;;;;35.12;17.05;99106.81;5112539;28;20401;-71
2021/07/22 06:23:10;;;;;;;15.07;2.78;;;;;;;35.34;16.50;99096.34;5112485;28;20289;-73
2021/07/22 06:25:36;;;;;;;5.43;1.63;;;;;;;35.16;16.72;99098.78;5111893;28;20036;-74
2021/07/22 06:28:02;;;;;;;6.72;1.38;;;;;;;35.04;16.54;99104.69;5111257;28;20349;-72
2021/07/22 06:30:31;;;;;;;5.05;1.45;;;;;;;34.47;16.84;99101.78;5112141;28;20073;-72
2021/07/22 06:32:57;;;;;;;10.68;1.83;;;;;;;34.64;16.66;99099.41;5112457;28;20054;-73
2021/07/22 06:35:22;;;;;;;3.85;1.65;;;;;;;35.31;16.14;99097.75;5112297;28;20048;-73
2021/07/22 06:37:49;;;;;;;6.57;1.67;;;;;;;35.52;15.85;99092.78;5112057;28;20048;-72
2021/07/22 06:40:31;;;;;;;5.60;1.27;;;;;;;36.18;15.80;99087.28;5110801;28;20032;-73
2021/07/22 06:42:57;;;;;;;5.97;1.50;;;;;;;36.32;15.20;99089.25;5112100;28;20055;-75
2021/07/22 06:45:22;;;;;;;3.05;1.15;;;;;;;37.13;14.68;99099.75;5112315;28;20091;-77
2021/07/22 06:47:48;;;;;;;3.72;1.20;;;;;;;37.71;13.92;99091.81;5113100;28;20467;-77
2021/07/22 06:50:14;;;;;;;7.85;1.60;;;;;;;38.59;13.67;99095.09;5112234;28;20508;-77
2021/07/22 06:52:40;;;;;;;2.60;1.70;;;;;;;37.74;13.61;99096.72;5112674;28;20096;-79
2021/07/22 06:55:06;;;;;;;;;;;;;;;37.24;14.12;99087.38;5098884;28;20067;-81
2021/07/22 06:57:32;;;;;;;4.05;1.45;;;;;;;37.89;13.62;99091.97;5086517;28;20018;-78
2021/07/22 06:59:58;;;;;;;5.40;1.90;;;;;;;38.00;13.78;99082.28;5108191;28;20122;-76
2021/07/22 07:02:24;;;;;;;4.03;1.90;;;;;;;37.05;14.09;99092.22;5104426;28;20047;-76
2021/07/22 07:04:49;;;;;;;3.28;1.30;;;;;;;37.80;13.19;99094.66;5112822;28;20043;-76
2021/07/22 07:07:16;;;;;;;5.78;1.73;;;;;;;38.58;12.81;99094.25;5095508;28;20527;-76
2021/07/22 07:09:42;;;;;;;;;;;;;;;39.40;12.23;99093.78;5083120;28;20127;-77
2021/07/22 07:12:09;;;;;;;6.63;1.30;;;;;;;37.95;13.00;99087.97;5092125;28;20051;-76
2021/07/22 07:14:41;;;;;;;6.10;1.83;;;;;;;38.07;13.82;99085.41;5075592;28;20113;-78
2021/07/22 07:17:07;;;;;;;5.05;1.60;;;;;;;39.58;12.22;99091.00;5074301;28;20036;-75
2021/07/22 07:19:33;;;;;;;3.58;1.80;;;;;;;39.89;11.75;99095.56;5092201;28;20040;-79
2021/07/22 07:21:59;;;;;;;3.22;1.40;;;;;;;39.38;11.64;99090.56;5091513;28;20048;-75
2021/07/22 07:24:24;;;;;;;11.60;1.50;;;;;;;39.54;11.51;99087.28;5092635;28;20093;-78
2021/07/22 07:26:50;;;;;;;5.00;1.63;;;;;;;38.86;11.80;99095.97;5092306;28;20541;-76
2021/07/22 07:29:16;;;;;;;3.75;1.20;;;;;;;38.99;12.24;99095.03;5092235;28;20036;-78
2021/07/22 07:31:43;;;;;;;3.55;1.10;;;;;;;40.46;11.22;99088.88;5092197;28;20063;-75
2021/07/22 07:34:08;;;;;;;6.45;1.70;;;;;;;41.93;9.99;99092.91;5092507;28;20048;-77
2021/07/22 07:36:39;;;;;;;3.20;1.77;;;;;;;42.26;9.94;99099.56;5074113;28;20265;-75
2021/07/22 07:39:05;;;;;;;8.27;2.10;;;;;;;40.06;11.31;99086.41;5096119;28;20048;-81
2021/07/22 07:41:30;;;;;;;4.63;1.58;;;;;;;39.39;11.22;99080.28;5077775;28;20520;-77
2021/07/22 07:43:56;;;;;;;4.03;1.70;;;;;;;39.84;10.85;99076.34;5095778;28;20040;-76
2021/07/22 07:46:22;;;;;;;15.70;1.90;;;;;;;39.30;10.79;99083.06;5077399;28;20485;-74
2021/07/22 07:48:48;;;;;;;7.15;1.83;;;;;;;39.26;10.74;99082.09;5095439;28;20051;-75
2021/07/22 07:51:15;;;;;;;6.55;1.80;;;;;;;38.33;10.97;99080.06;5095041;28;20126;-75
2021/07/22 07:53:41;;;;;;;5.40;1.20;;;;;;;39.60;10.23;99080.44;5095640;28;20051;-74
2021/07/22 07:56:06;;;;;;;11.32;1.67;;;;;;;39.05;10.36;99076.34;5078016;28;20039;-77
2021/07/22 07:58:32;;;;;;;2.25;1.45;;;;;;;39.46;10.73;99080.63;5095344;28;20452;-75
2021/07/22 08:00:58;;;;;;;8.85;1.50;;;;;;;40.34;10.31;99075.72;5060218;28;20036;-75
2021/07/22 08:03:24;;;;;;;9.48;2.97;;;;;;;40.91;9.73;99081.94;5095347;28;20050;-78
2021/07/22 08:05:51;;;;;;;;;;;;;;;40.44;9.95;99080.88;5096446;28;20400;-74
2021/07/22 08:08:17;;;;;;;7.10;1.83;;;;;;;41.11;9.52;99088.69;5095481;28;20364;-77
2021/07/22 08:10:43;;;;;;;10.05;1.67;;;;;;;38.95;10.42;99088.53;5060166;28;20082;-77
2021/07/22 08:13:10;;;;;;;5.80;1.52;;;;;;;38.57;10.25;99083.53;5095305;28;20043;-75
2021/07/22 08:15:36;;;;;;;4.55;1.50;;;;;;;38.99;9.93;99093.09;5095364;28;20054;-76
2021/07/22 08:18:03;;;;;;;3.95;1.80;;;;;;;39.00;9.84;99088.38;5077315;28;20051;-77
2021/07/22 08:20:28;;;;;;;5.50;1.70;;;;;;;40.22;9.09;99098.59;5077350;28;20040;-76
2021/07/22 08:22:54;;;;;;;3.30;1.63;;;;;;;40.04;9.21;99089.50;5094707;28;20071;-75
2021/07/22 08:25:20;;;;;;;5.45;1.30;;;;;;;38.60;9.86;99093.97;5095014;28;20073;-76
2021/07/22 08:27:46;;;;;;;5.18;1.20;;;;;;;38.74;9.57;99093.81;5095089;28;20055;-78
2021/07/22 08:30:12;;;;;;;;;;;;;;;39.20;9.43;99081.41;5095435;28;20040;-75
2021/07/22 08:32:38;;;;;;;3.65;1.42;;;;;;;39.13;9.35;99090.19;5076916;28;19922;-77
2021/07/22 08:35:05;;;;;;;5.78;2.03;;;;;;;38.53;10.26;99079.78;5094903;28;20408;-77
2021/07/22 08:37:30;;;;;;;7.55;1.60;;;;;;;38.02;9.78;99086.38;5094591;28;20043;-77
2021/07/22 08:40:03;;;;;;;4.75;2.15;;;;;;;37.93;10.71;99076.41;5096341;28;20048;-75
2021/07/22 08:42:33;;;;;;;7.47;1.42;;;;;;;38.06;10.33;99069.97;5077618;28;20059;-74
2021/07/22 08:44:59;;;;;;;3.00;1.20;;;;;;;38.79;9.92;99069.63;5094325;28;20082;-77
2021/07/22 08:47:25;;;;;;;5.45;1.40;;;;;;;38.32;10.47;99072.06;5094347;28;20084;-75
2021/07/22 08:49:51;;;;;;;5.13;1.48;;;;;;;39.67;9.57;99079.97;5075546;28;20131;-75
2021/07/22 08:52:17;;;;;;;3.78;1.40;;;;;;;40.20;9.10;99077.91;5076190;28;20431;-76
2021/07/22 08:54:43;;;;;;;3.92;1.88;;;;;;;39.57;9.55;99075.56;5094527;28;20071;-77
2021/07/22 08:57:09;;;;;;;2.63;1.20;;;;;;;39.68;9.70;99076.88;5076185;28;20131;-74
2021/07/22 08:59:35;;;;;;;7.15;1.92;;;;;;;40.44;9.33;99074.56;5076159;28;20097;-76
2021/07/22 09:02:02;;;;;;;4.65;1.80;;;;;;;39.19;9.95;99076.19;5094467;28;20044;-76
2021/07/22 09:04:28;;;;;;;6.75;1.30;;;;;;;38.43;10.32;99069.84;5076140;28;20097;-77
2021/07/22 09:06:58;;;;;;;3.45;1.60;;;;;;;38.33;10.55;99079.22;5094179;28;20044;-75
2021/07/22 09:09:24;;;;;;;3.38;1.05;;;;;;;36.55;11.33;99073.66;5094249;28;20097;-74
2021/07/22 09:12:00;;;;;;;6.50;2.78;;;;;;;36.56;11.47;99081.66;5093920;28;20056;-79
2021/07/22 09:14:29;;;;;;;6.45;2.20;;;;;;;37.89;11.34;99081.75;5094021;28;20039;-76
2021/07/22 09:16:55;;;;;;;5.25;2.17;;;;;;;38.39;10.55;99077.94;5076807;28;20032;-72
2021/07/22 09:19:39;;;;;;;7.25;1.95;;;;;;;37.53;10.81;99077.09;5077396;28;20040;-75
2021/07/22 09:22:09;;;;;;;4.07;1.42;;;;;;;38.16;10.53;99075.22;5095357;28;20052;-74
2021/07/22 09:24:52;;;;;;;5.25;1.50;;;;;;;37.95;10.78;99068.63;5095299;28;20079;-78
2021/07/22 09:27:41;;;;;;;6.70;4.20;;;;;;;37.94;11.14;99072.50;5094838;28;20068;-74
2021/07/22 09:30:17;;;;;;;3.33;1.63;;;;;;;38.74;10.91;99072.50;5076068;28;20105;-79
2021/07/22 09:32:46;;;;;;;8.35;2.42;;;;;;;38.64;10.72;99072.81;5093829;28;20078;-74
2021/07/22 09:35:14;;;;;;;6.22;1.55;;;;;;;38.49;10.67;99066.59;5075157;28;20044;-75
2021/07/22 09:37:54;;;;;;;5.03;1.48;;;;;;;39.00;10.92;99069.03;5093489;28;20054;-77
2021/07/22 09:40:25;;;;;;;6.05;1.52;;;;;;;38.70;10.99;99070.75;5093651;28;20043;-77
2021/07/22 09:42:56;;;;;;;8.38;2.13;;;;;;;37.83;11.13;99070.00;5093493;28;20044;-75
2021/07/22 09:45:25;;;;;;;8.68;1.80;;;;;;;38.15;10.79;99057.00;5093239;28;20044;-78
2021/07/22 09:47:51;;;;;;;10.38;3.15;;;;;;;36.43;12.12;99063.97;5093371;28;20051;-75
2021/07/22 09:50:19;;;;;;;5.80;1.50;;;;;;;36.79;11.59;99062.44;5093390;28;20052;-75
2021/07/22 09:52:59;;;;;;;6.00;1.30;;;;;;;36.71;11.99;99065.91;5093691;28;20182;-80
2021/07/22 09:55:27;;;;;;;4.13;1.10;;;;;;;36.86;11.87;99057.34;5075369;28;20036;-76
2021/07/22 09:58:00;;;;;;;10.07;1.85;;;;;;;36.77;12.00;99064.66;5093003;28;20048;-75
2021/07/22 10:00:28;;;;;;;5.85;1.30;;;;;;;37.00;11.64;99070.28;5075096;28;20126;-75
2021/07/22 10:02:55;;;;;;;4.43;1.20;;;;;;;37.69;11.33;99058.22;5093270;28;20051;-76
2021/07/22 10:05:29;;;;;;;3.47;0.90;;;;;;;37.12;11.43;99059.53;5093101;28;20142;-76
2021/07/22 10:07:56;;;;;;;4.32;0.98;;;;;;;36.75;11.82;99064.16;5093051;28;20261;-74
2021/07/22 10:10:22;;;;;;;2.95;1.35;;;;;;;36.40;11.75;99061.00;5092647;28;21507;-74
2021/07/22 10:12:52;;;;;;;15.05;13.57;;;;;;;35.27;13.05;99063.72;5093101;28;20468;-74
2021/07/22 10:15:19;;;;;;;10.48;5.25;;;;;;;35.14;12.73;99051.50;5092815;28;20075;-76
2021/07/22 10:17:47;;;;;;;7.78;1.45;;;;;;;34.20;13.27;99070.22;5093078;28;20517;-75
2021/07/22 10:20:14;;;;;;;3.15;1.00;;;;;;;34.06;13.30;99064.59;5092782;28;20040;-75
2021/07/22 10:22:42;;;;;;;3.00;0.88;;;;;;;34.50;12.89;99069.06;5093146;28;20059;-78
2021/07/22 10:25:11;;;;;;;2.33;0.88;;;;;;;34.49;12.81;99067.47;5092926;28;20084;-76
2021/07/22 10:27:37;;;;;;;4.82;0.90;;;;;;;34.34;13.09;99060.22;5092677;28;20063;-75
2021/07/22 10:30:08;;;;;;;3.43;0.73;;;;;;;33.91;13.24;99057.31;5074466;28;20505;-75
2021/07/22 10:32:34;;;;;;;3.78;0.90;;;;;;;33.55;14.68;99068.56;5092850;28;20100;-76
2021/07/22 10:35:00;;;;;;;3.50;0.90;;;;;;;32.92;14.71;99063.72;5092806;28;20123;-75
2021/07/22 10:37:26;;;;;;;6.93;1.58;;;;;;;31.65;15.51;99057.13;5092466;28;20394;-74
2021/07/22 10:40:08;;;;;;;2.70;0.70;;;;;;;31.84;15.56;99059.31;5092438;28;20042;-76
2021/07/22 10:42:48;;;;;;;14.30;1.90;;;;;;;32.06;15.58;99065.28;5092409;28;20048;-74
2021/07/22 10:45:19;;;;;;;7.78;1.90;;;;;;;31.98;15.90;99063.13;5092592;28;20040;-76
2021/07/22 10:48:07;;;;;;;6.00;1.00;;;;;;;31.50;15.85;99062.56;5092491;28;20044;-76
2021/07/22 10:50:43;;;;;;;6.50;1.00;;;;;;;30.93;16.26;99073.31;5074638;28;20052;-78
2021/07/22 10:53:09;;;;;;;5.65;0.90;;;;;;;31.37;15.97;99072.94;5092254;28;20092;-74
2021/07/22 10:55:41;;;;;;;3.20;0.50;;;;;;;31.64;15.64;99073.81;5092270;28;20429;-74
2021/07/22 10:58:33;;;;;;;4.43;0.77;;;;;;;30.87;16.18;99077.97;5092027;28;20044;-76
2021/07/22 11:01:00;;;;;;;4.68;0.60;;;;;;;30.81;16.33;99071.66;5092201;28;20125;-74
2021/07/22 11:03:35;;;;;;;;;;;;;;;30.28;16.61;99070.81;5092083;28;20473;-75
2021/07/22 11:06:04;;;;;;;9.23;1.05;;;;;;;29.83;17.01;99060.13;5091942;28;19965;-75
2021/07/22 11:08:32;;;;;;;3.95;1.05;;;;;;;29.89;16.85;99068.34;5073782;28;20040;-78
2021/07/22 11:11:02;;;;;;;15.07;2.63;;;;;;;30.37;16.26;99065.69;5074080;28;20500;-77
2021/07/22 11:13:37;;;;;;;8.52;0.82;;;;;;;29.95;16.61;99070.06;5073318;28;20048;-74
2021/07/22 11:16:39;;;;;;;7.32;0.70;;;;;;;29.50;17.08;99064.75;5092086;28;20054;-75
2021/07/22 11:19:12;;;;;;;4.30;0.80;;;;;;;29.67;17.24;99069.25;5073860;28;20051;-75
2021/07/22 11:21:39;;;;;;;5.25;1.27;;;;;;;29.61;16.99;99073.00;5074280;28;20477;-75
2021/07/22 11:24:09;;;;;;;3.13;1.07;;;;;;;29.13;17.52;99068.16;5074186;28;20097;-76
2021/07/22 11:26:37;;;;;;;4.70;1.10;;;;;;;29.31;16.94;99068.91;5091947;28;20135;-76
2021/07/22 11:29:05;;;;;;;3.55;1.00;;;;;;;29.64;17.18;99067.88;5091963;28;20501;-74
2021/07/22 11:31:33;;;;;;;3.28;1.10;;;;;;;29.14;17.48;99069.00;5074105;28;20048;-73
2021/07/22 11:34:02;;;;;;;;;;;;;;;28.68;17.80;99069.28;5074996;28;20501;-74
2021/07/22 11:36:32;;;;;;;3.33;0.85;;;;;;;28.43;17.79;99072.47;5092651;28;19916;-75
2021/07/22 11:38:58;;;;;;;2.30;0.70;;;;;;;28.37;18.18;99057.97;5074965;28;20036;-75
2021/07/22 11:41:24;;;;;;;3.88;0.90;;;;;;;28.42;18.46;99063.47;5093192;28;20488;-74
2021/07/22 11:43:57;;;;;;;4.43;0.73;;;;;;;28.43;18.76;99065.13;5073954;28;20052;-74
2021/07/22 11:46:44;;;;;;;7.13;1.15;;;;;;;27.92;19.51;99065.16;5091532;28;20399;-74
2021/07/22 11:49:14;;;;;;;12.07;1.55;;;;;;;27.85;19.29;99064.50;5091186;28;20044;-75
2021/07/22 11:51:44;;;;;;;5.00;1.02;;;;;;;27.20;20.13;99070.13;5091838;28;20536;-79